sensor_id;sensor_type;location;lat;lon;timestamp;temperature;humidity
26691;DHT22;14307;51.718;8.938;2023-08-12T00:00:24;18.70;99.90
26691;DHT22;14307;51.718;8.938;2023-08-12T00:02:51;18.70;99.90
26691;DHT22;14307;51.718;8.938;2023-08-12T00:05:18;18.80;99.90
26691;DHT22;14307;51.718;8.938;2023-08-12T00:07:45;18.70;99.90
26691;DHT22;14307;51.718;8.938;2023-08-12T00:10:12;18.70;99.90
26691;DHT22;14307;51.718;8.938;2023-08-12T00:12:39;18.80;99.90
26691;DHT22;14307;51.718;8.938;2023-08-12T00:15:06;18.80;99.90
26691;DHT22;14307;51.718;8.938;2023-08-12T00:17:34;18.70;99.90
26691;DHT22;14307;51.718;8.938;2023-08-12T00:20:07;18.50;99.90
26691;DHT22;14307;51.718;8.938;2023-08-12T00:22:35;18.50;99.90
26691;DHT22;14307;51.718;8.938;2023-08-12T00:25:02;18.50;99.90
26691;DHT22;14307;51.718;8.938;2023-08-12T00:27:29;18.50;99.90
26691;DHT22;14307;51.718;8.938;2023-08-12T00:29:56;18.60;99.90
26691;DHT22;14307;51.718;8.938;2023-08-12T00:32:23;18.50;99.90
26691;DHT22;14307;51.718;8.938;2023-08-12T00:34:49;18.50;99.90
26691;DHT22;14307;51.718;8.938;2023-08-12T00:37:17;18.60;99.90
26691;DHT22;14307;51.718;8.938;2023-08-12T00:39:44;18.40;99.90
26691;DHT22;14307;51.718;8.938;2023-08-12T00:42:11;18.40;99.90
26691;DHT22;14307;51.718;8.938;2023-08-12T00:44:41;18.50;99.90
26691;DHT22;14307;51.718;8.938;2023-08-12T00:47:08;18.70;99.90
26691;DHT22;14307;51.718;8.938;2023-08-12T00:49:36;18.70;99.90
26691;DHT22;14307;51.718;8.938;2023-08-12T00:52:04;18.70;99.90
26691;DHT22;14307;51.718;8.938;2023-08-12T00:54:32;18.50;99.90
26691;DHT22;14307;51.718;8.938;2023-08-12T00:56:59;18.40;99.90
26691;DHT22;14307;51.718;8.938;2023-08-12T00:59:26;18.30;99.90
26691;DHT22;14307;51.718;8.938;2023-08-12T01:01:53;18.20;99.90
26691;DHT22;14307;51.718;8.938;2023-08-12T01:04:20;18.20;99.90
26691;DHT22;14307;51.718;8.938;2023-08-12T01:06:46;18.30;99.90
26691;DHT22;14307;51.718;8.938;2023-08-12T01:09:13;18.50;99.90
26691;DHT22;14307;51.718;8.938;2023-08-12T01:12:08;18.90;99.90
26691;DHT22;14307;51.718;8.938;2023-08-12T01:14:45;19.10;99.90
26691;DHT22;14307;51.718;8.938;2023-08-12T01:17:14;19.40;99.90
26691;DHT22;14307;51.718;8.938;2023-08-12T01:19:43;19.50;99.90
26691;DHT22;14307;51.718;8.938;2023-08-12T01:22:12;19.70;99.90
26691;DHT22;14307;51.718;8.938;2023-08-12T01:24:40;19.90;99.90
26691;DHT22;14307;51.718;8.938;2023-08-12T01:27:08;19.90;99.90
26691;DHT22;14307;51.718;8.938;2023-08-12T01:29:48;20.00;99.90
26691;DHT22;14307;51.718;8.938;2023-08-12T01:32:45;20.10;99.90
26691;DHT22;14307;51.718;8.938;2023-08-12T01:35:30;20.10;99.90
26691;DHT22;14307;51.718;8.938;2023-08-12T01:38:00;20.10;99.90
26691;DHT22;14307;51.718;8.938;2023-08-12T01:40:29;20.10;99.90
26691;DHT22;14307;51.718;8.938;2023-08-12T01:42:58;20.10;99.90
26691;DHT22;14307;51.718;8.938;2023-08-12T01:45:25;20.10;99.90
26691;DHT22;14307;51.718;8.938;2023-08-12T01:47:52;20.00;99.90
26691;DHT22;14307;51.718;8.938;2023-08-12T01:50:21;20.00;99.90
26691;DHT22;14307;51.718;8.938;2023-08-12T01:52:48;19.90;99.90
26691;DHT22;14307;51.718;8.938;2023-08-12T01:55:15;19.80;99.90
26691;DHT22;14307;51.718;8.938;2023-08-12T01:57:44;19.70;99.90
26691;DHT22;14307;51.718;8.938;2023-08-12T02:00:11;19.70;99.90
26691;DHT22;14307;51.718;8.938;2023-08-12T02:02:45;19.60;99.90
26691;DHT22;14307;51.718;8.938;2023-08-12T02:05:15;19.60;99.90
26691;DHT22;14307;51.718;8.938;2023-08-12T02:07:42;19.60;99.90
26691;DHT22;14307;51.718;8.938;2023-08-12T02:10:09;19.50;99.90
26691;DHT22;14307;51.718;8.938;2023-08-12T02:12:36;19.50;99.90
26691;DHT22;14307;51.718;8.938;2023-08-12T02:15:03;19.40;99.90
26691;DHT22;14307;51.718;8.938;2023-08-12T02:17:30;19.40;99.90
26691;DHT22;14307;51.718;8.938;2023-08-12T02:19:57;19.30;99.90
26691;DHT22;14307;51.718;8.938;2023-08-12T02:22:24;19.20;99.90
26691;DHT22;14307;51.718;8.938;2023-08-12T02:24:51;19.20;99.90
26691;DHT22;14307;51.718;8.938;2023-08-12T02:27:18;19.20;99.90
26691;DHT22;14307;51.718;8.938;2023-08-12T02:29:44;19.20;99.90
26691;DHT22;14307;51.718;8.938;2023-08-12T02:32:11;19.20;99.90
26691;DHT22;14307;51.718;8.938;2023-08-12T02:34:38;19.20;99.90
26691;DHT22;14307;51.718;8.938;2023-08-12T02:37:05;19.20;99.90
26691;DHT22;14307;51.718;8.938;2023-08-12T02:39:31;19.20;99.90
26691;DHT22;14307;51.718;8.938;2023-08-12T02:41:58;19.20;99.90
26691;DHT22;14307;51.718;8.938;2023-08-12T02:44:26;19.20;99.90
26691;DHT22;14307;51.718;8.938;2023-08-12T02:46:56;19.20;99.90
26691;DHT22;14307;51.718;8.938;2023-08-12T02:49:22;19.20;99.90
26691;DHT22;14307;51.718;8.938;2023-08-12T02:51:49;19.20;99.90
26691;DHT22;14307;51.718;8.938;2023-08-12T02:54:16;19.30;99.90
26691;DHT22;14307;51.718;8.938;2023-08-12T02:56:43;19.30;99.90
26691;DHT22;14307;51.718;8.938;2023-08-12T02:59:10;19.20;99.90
26691;DHT22;14307;51.718;8.938;2023-08-12T03:01:37;19.30;99.90
26691;DHT22;14307;51.718;8.938;2023-08-12T03:04:04;19.20;99.90
26691;DHT22;14307;51.718;8.938;2023-08-12T03:06:31;19.30;99.90
26691;DHT22;14307;51.718;8.938;2023-08-12T03:08:58;19.20;99.90
26691;DHT22;14307;51.718;8.938;2023-08-12T03:11:25;19.20;99.90
26691;DHT22;14307;51.718;8.938;2023-08-12T03:13:54;19.20;99.90
26691;DHT22;14307;51.718;8.938;2023-08-12T03:16:23;19.20;99.90
26691;DHT22;14307;51.718;8.938;2023-08-12T03:18:51;19.20;99.90
26691;DHT22;14307;51.718;8.938;2023-08-12T03:21:18;19.20;99.90
26691;DHT22;14307;51.718;8.938;2023-08-12T03:23:45;19.10;99.90
26691;DHT22;14307;51.718;8.938;2023-08-12T03:26:12;19.00;99.90
26691;DHT22;14307;51.718;8.938;2023-08-12T03:28:40;19.10;99.90
26691;DHT22;14307;51.718;8.938;2023-08-12T03:31:09;19.10;99.90
26691;DHT22;14307;51.718;8.938;2023-08-12T03:33:36;19.20;99.90
26691;DHT22;14307;51.718;8.938;2023-08-12T03:36:04;19.20;99.90
26691;DHT22;14307;51.718;8.938;2023-08-12T03:38:31;19.20;99.90
26691;DHT22;14307;51.718;8.938;2023-08-12T03:40:58;19.30;99.90
26691;DHT22;14307;51.718;8.938;2023-08-12T03:43:25;19.30;99.90
26691;DHT22;14307;51.718;8.938;2023-08-12T03:45:51;19.20;99.90
26691;DHT22;14307;51.718;8.938;2023-08-12T03:48:20;19.10;99.90
26691;DHT22;14307;51.718;8.938;2023-08-12T03:50:46;19.00;99.90
26691;DHT22;14307;51.718;8.938;2023-08-12T03:53:14;19.00;99.90
26691;DHT22;14307;51.718;8.938;2023-08-12T03:55:41;19.00;99.90
26691;DHT22;14307;51.718;8.938;2023-08-12T03:58:08;18.90;99.90
26691;DHT22;14307;51.718;8.938;2023-08-12T04:00:40;18.80;99.90
26691;DHT22;14307;51.718;8.938;2023-08-12T04:03:07;18.80;99.90
26691;DHT22;14307;51.718;8.938;2023-08-12T04:05:34;18.70;99.90
26691;DHT22;14307;51.718;8.938;2023-08-12T04:08:02;18.70;99.90
26691;DHT22;14307;51.718;8.938;2023-08-12T04:10:30;18.70;99.90
26691;DHT22;14307;51.718;8.938;2023-08-12T04:12:56;18.70;99.90
26691;DHT22;14307;51.718;8.938;2023-08-12T04:15:24;18.70;99.90
26691;DHT22;14307;51.718;8.938;2023-08-12T04:17:50;18.80;99.90
26691;DHT22;14307;51.718;8.938;2023-08-12T04:20:18;18.80;99.90
26691;DHT22;14307;51.718;8.938;2023-08-12T04:22:45;18.90;99.90
26691;DHT22;14307;51.718;8.938;2023-08-12T04:25:15;18.80;99.90
26691;DHT22;14307;51.718;8.938;2023-08-12T04:27:42;18.80;99.90
26691;DHT22;14307;51.718;8.938;2023-08-12T04:30:09;18.80;99.90
26691;DHT22;14307;51.718;8.938;2023-08-12T04:32:37;18.80;99.90
26691;DHT22;14307;51.718;8.938;2023-08-12T04:35:05;18.80;99.90
26691;DHT22;14307;51.718;8.938;2023-08-12T04:37:31;18.90;99.90
26691;DHT22;14307;51.718;8.938;2023-08-12T04:39:59;18.90;99.90
26691;DHT22;14307;51.718;8.938;2023-08-12T04:42:27;18.90;99.90
26691;DHT22;14307;51.718;8.938;2023-08-12T04:44:56;18.90;99.90
26691;DHT22;14307;51.718;8.938;2023-08-12T04:47:23;18.90;99.90
26691;DHT22;14307;51.718;8.938;2023-08-12T04:49:55;18.90;99.90
26691;DHT22;14307;51.718;8.938;2023-08-12T04:52:22;19.00;99.90
26691;DHT22;14307;51.718;8.938;2023-08-12T04:54:53;19.10;99.90
26691;DHT22;14307;51.718;8.938;2023-08-12T04:57:21;19.10;99.90
26691;DHT22;14307;51.718;8.938;2023-08-12T04:59:48;19.10;99.90
26691;DHT22;14307;51.718;8.938;2023-08-12T05:02:15;19.20;99.90
26691;DHT22;14307;51.718;8.938;2023-08-12T05:04:42;19.20;99.90
26691;DHT22;14307;51.718;8.938;2023-08-12T05:07:09;19.20;99.90
26691;DHT22;14307;51.718;8.938;2023-08-12T05:09:35;19.10;99.90
26691;DHT22;14307;51.718;8.938;2023-08-12T05:12:02;19.10;99.90
26691;DHT22;14307;51.718;8.938;2023-08-12T05:14:29;19.20;99.90
26691;DHT22;14307;51.718;8.938;2023-08-12T05:16:59;19.30;99.90
26691;DHT22;14307;51.718;8.938;2023-08-12T05:19:26;19.30;99.90
26691;DHT22;14307;51.718;8.938;2023-08-12T05:21:53;19.20;99.90
26691;DHT22;14307;51.718;8.938;2023-08-12T05:24:19;19.10;99.90
26691;DHT22;14307;51.718;8.938;2023-08-12T05:26:46;19.00;99.90
26691;DHT22;14307;51.718;8.938;2023-08-12T05:29:13;19.00;99.90
26691;DHT22;14307;51.718;8.938;2023-08-12T05:31:40;19.00;99.90
26691;DHT22;14307;51.718;8.938;2023-08-12T05:34:06;19.00;99.90
26691;DHT22;14307;51.718;8.938;2023-08-12T05:36:33;18.90;99.90
26691;DHT22;14307;51.718;8.938;2023-08-12T05:39:03;18.90;99.90
26691;DHT22;14307;51.718;8.938;2023-08-12T05:41:30;18.80;99.90
26691;DHT22;14307;51.718;8.938;2023-08-12T05:43:57;18.80;99.90
26691;DHT22;14307;51.718;8.938;2023-08-12T05:46:23;18.70;99.90
26691;DHT22;14307;51.718;8.938;2023-08-12T05:48:50;18.70;99.90
26691;DHT22;14307;51.718;8.938;2023-08-12T05:51:17;18.80;99.90
26691;DHT22;14307;51.718;8.938;2023-08-12T05:53:43;18.70;99.90
26691;DHT22;14307;51.718;8.938;2023-08-12T05:56:10;18.90;99.90
26691;DHT22;14307;51.718;8.938;2023-08-12T05:58:37;19.10;99.90
26691;DHT22;14307;51.718;8.938;2023-08-12T06:01:03;19.00;99.90
26691;DHT22;14307;51.718;8.938;2023-08-12T06:03:30;18.90;99.90
26691;DHT22;14307;51.718;8.938;2023-08-12T06:05:57;19.00;99.90
26691;DHT22;14307;51.718;8.938;2023-08-12T06:08:24;19.00;99.90
26691;DHT22;14307;51.718;8.938;2023-08-12T06:10:50;18.90;99.90
26691;DHT22;14307;51.718;8.938;2023-08-12T06:13:17;18.90;99.90
26691;DHT22;14307;51.718;8.938;2023-08-12T06:15:44;18.80;99.90
26691;DHT22;14307;51.718;8.938;2023-08-12T06:18:10;18.80;99.90
26691;DHT22;14307;51.718;8.938;2023-08-12T06:20:37;18.90;99.90
26691;DHT22;14307;51.718;8.938;2023-08-12T06:23:04;18.90;99.90
26691;DHT22;14307;51.718;8.938;2023-08-12T06:25:31;18.90;99.90
26691;DHT22;14307;51.718;8.938;2023-08-12T06:27:57;18.90;99.90
26691;DHT22;14307;51.718;8.938;2023-08-12T06:30:25;19.10;99.90
26691;DHT22;14307;51.718;8.938;2023-08-12T06:32:52;19.10;99.90
26691;DHT22;14307;51.718;8.938;2023-08-12T06:35:18;19.30;99.90
26691;DHT22;14307;51.718;8.938;2023-08-12T06:37:45;19.30;99.90
26691;DHT22;14307;51.718;8.938;2023-08-12T06:40:12;19.40;99.90
26691;DHT22;14307;51.718;8.938;2023-08-12T06:42:39;19.30;99.90
26691;DHT22;14307;51.718;8.938;2023-08-12T06:45:07;19.30;99.90
26691;DHT22;14307;51.718;8.938;2023-08-12T06:47:33;19.30;99.90
26691;DHT22;14307;51.718;8.938;2023-08-12T06:50:00;19.30;99.90
26691;DHT22;14307;51.718;8.938;2023-08-12T06:52:27;19.10;99.90
26691;DHT22;14307;51.718;8.938;2023-08-12T06:54:54;19.00;99.90
26691;DHT22;14307;51.718;8.938;2023-08-12T06:57:20;19.00;99.90
26691;DHT22;14307;51.718;8.938;2023-08-12T06:59:47;19.00;99.90
26691;DHT22;14307;51.718;8.938;2023-08-12T07:02:14;19.00;99.90
26691;DHT22;14307;51.718;8.938;2023-08-12T07:04:41;19.00;99.90
26691;DHT22;14307;51.718;8.938;2023-08-12T07:07:07;19.20;99.90
26691;DHT22;14307;51.718;8.938;2023-08-12T07:09:34;19.40;99.90
26691;DHT22;14307;51.718;8.938;2023-08-12T07:12:01;19.40;99.90
26691;DHT22;14307;51.718;8.938;2023-08-12T07:14:30;19.40;99.90
26691;DHT22;14307;51.718;8.938;2023-08-12T07:16:57;19.40;99.90
26691;DHT22;14307;51.718;8.938;2023-08-12T07:19:24;19.40;99.90
26691;DHT22;14307;51.718;8.938;2023-08-12T07:21:50;19.40;99.90
26691;DHT22;14307;51.718;8.938;2023-08-12T07:24:17;19.50;99.90
26691;DHT22;14307;51.718;8.938;2023-08-12T07:26:44;19.70;99.90
26691;DHT22;14307;51.718;8.938;2023-08-12T07:29:11;19.70;99.90
26691;DHT22;14307;51.718;8.938;2023-08-12T07:31:38;19.60;99.90
26691;DHT22;14307;51.718;8.938;2023-08-12T07:34:05;19.60;99.90
26691;DHT22;14307;51.718;8.938;2023-08-12T07:36:32;19.50;99.90
26691;DHT22;14307;51.718;8.938;2023-08-12T07:38:59;19.60;99.90
26691;DHT22;14307;51.718;8.938;2023-08-12T07:41:26;19.70;99.90
26691;DHT22;14307;51.718;8.938;2023-08-12T07:43:54;19.90;99.90
26691;DHT22;14307;51.718;8.938;2023-08-12T07:46:21;19.90;99.90
26691;DHT22;14307;51.718;8.938;2023-08-12T07:48:48;20.10;99.90
26691;DHT22;14307;51.718;8.938;2023-08-12T07:51:14;20.10;99.90
26691;DHT22;14307;51.718;8.938;2023-08-12T07:53:41;20.20;99.90
26691;DHT22;14307;51.718;8.938;2023-08-12T07:56:08;20.20;99.90
26691;DHT22;14307;51.718;8.938;2023-08-12T07:58:35;20.20;99.90
26691;DHT22;14307;51.718;8.938;2023-08-12T08:01:02;20.30;99.90
26691;DHT22;14307;51.718;8.938;2023-08-12T08:03:28;20.50;99.90
26691;DHT22;14307;51.718;8.938;2023-08-12T08:05:55;20.60;99.90
26691;DHT22;14307;51.718;8.938;2023-08-12T08:08:22;20.90;99.90
26691;DHT22;14307;51.718;8.938;2023-08-12T08:10:49;21.10;99.90
26691;DHT22;14307;51.718;8.938;2023-08-12T08:13:16;21.30;99.90
26691;DHT22;14307;51.718;8.938;2023-08-12T08:15:43;21.50;99.90
26691;DHT22;14307;51.718;8.938;2023-08-12T08:18:09;21.80;99.90
26691;DHT22;14307;51.718;8.938;2023-08-12T08:20:36;21.90;99.90
26691;DHT22;14307;51.718;8.938;2023-08-12T08:23:03;22.00;99.90
26691;DHT22;14307;51.718;8.938;2023-08-12T08:25:30;22.20;99.90
26691;DHT22;14307;51.718;8.938;2023-08-12T08:27:56;22.30;99.90
26691;DHT22;14307;51.718;8.938;2023-08-12T08:30:23;22.30;99.90
26691;DHT22;14307;51.718;8.938;2023-08-12T08:32:52;22.20;99.90
26691;DHT22;14307;51.718;8.938;2023-08-12T08:35:19;22.10;99.90
26691;DHT22;14307;51.718;8.938;2023-08-12T08:37:45;22.00;99.90
26691;DHT22;14307;51.718;8.938;2023-08-12T08:40:12;22.00;99.90
26691;DHT22;14307;51.718;8.938;2023-08-12T08:42:40;21.70;99.90
26691;DHT22;14307;51.718;8.938;2023-08-12T08:45:14;21.60;99.90
26691;DHT22;14307;51.718;8.938;2023-08-12T08:47:41;21.60;99.90
26691;DHT22;14307;51.718;8.938;2023-08-12T08:50:10;21.60;99.90
26691;DHT22;14307;51.718;8.938;2023-08-12T08:52:37;21.50;99.90
26691;DHT22;14307;51.718;8.938;2023-08-12T08:55:04;21.50;99.90
26691;DHT22;14307;51.718;8.938;2023-08-12T08:57:34;21.50;99.90
26691;DHT22;14307;51.718;8.938;2023-08-12T09:00:13;21.40;99.90
26691;DHT22;14307;51.718;8.938;2023-08-12T09:02:46;21.30;99.90
26691;DHT22;14307;51.718;8.938;2023-08-12T09:05:16;21.10;99.90
26691;DHT22;14307;51.718;8.938;2023-08-12T09:07:47;21.00;99.90
26691;DHT22;14307;51.718;8.938;2023-08-12T09:10:17;21.00;99.90
26691;DHT22;14307;51.718;8.938;2023-08-12T09:12:47;21.00;99.90
26691;DHT22;14307;51.718;8.938;2023-08-12T09:15:17;20.90;99.90
26691;DHT22;14307;51.718;8.938;2023-08-12T09:17:45;21.00;99.90
26691;DHT22;14307;51.718;8.938;2023-08-12T09:20:12;21.10;99.90
26691;DHT22;14307;51.718;8.938;2023-08-12T09:22:40;21.30;99.90
26691;DHT22;14307;51.718;8.938;2023-08-12T09:25:12;21.30;99.90
26691;DHT22;14307;51.718;8.938;2023-08-12T09:27:39;21.40;99.90
26691;DHT22;14307;51.718;8.938;2023-08-12T09:30:07;21.50;99.90
26691;DHT22;14307;51.718;8.938;2023-08-12T09:32:34;21.60;99.90
26691;DHT22;14307;51.718;8.938;2023-08-12T09:35:01;21.80;99.90
26691;DHT22;14307;51.718;8.938;2023-08-12T09:37:30;22.00;99.90
26691;DHT22;14307;51.718;8.938;2023-08-12T09:39:57;22.10;99.90
26691;DHT22;14307;51.718;8.938;2023-08-12T09:42:24;22.10;99.90
26691;DHT22;14307;51.718;8.938;2023-08-12T09:44:51;22.10;99.90
26691;DHT22;14307;51.718;8.938;2023-08-12T09:47:18;22.20;99.90
26691;DHT22;14307;51.718;8.938;2023-08-12T09:49:45;22.30;99.90
26691;DHT22;14307;51.718;8.938;2023-08-12T09:52:12;22.40;99.90
26691;DHT22;14307;51.718;8.938;2023-08-12T09:54:41;22.40;99.90
26691;DHT22;14307;51.718;8.938;2023-08-12T09:57:08;22.40;99.90
26691;DHT22;14307;51.718;8.938;2023-08-12T09:59:41;22.70;99.90
26691;DHT22;14307;51.718;8.938;2023-08-12T10:02:12;23.00;99.90
26691;DHT22;14307;51.718;8.938;2023-08-12T10:04:49;23.30;99.90
26691;DHT22;14307;51.718;8.938;2023-08-12T10:07:17;23.60;99.90
26691;DHT22;14307;51.718;8.938;2023-08-12T10:09:44;23.80;99.90
26691;DHT22;14307;51.718;8.938;2023-08-12T10:12:11;23.70;99.90
26691;DHT22;14307;51.718;8.938;2023-08-12T10:14:43;23.70;99.90
26691;DHT22;14307;51.718;8.938;2023-08-12T10:17:10;24.00;99.90
26691;DHT22;14307;51.718;8.938;2023-08-12T10:19:57;24.20;99.90
26691;DHT22;14307;51.718;8.938;2023-08-12T10:22:29;24.50;99.90
26691;DHT22;14307;51.718;8.938;2023-08-12T10:24:58;24.40;99.90
26691;DHT22;14307;51.718;8.938;2023-08-12T10:27:26;24.50;99.90
26691;DHT22;14307;51.718;8.938;2023-08-12T10:29:56;24.70;99.90
26691;DHT22;14307;51.718;8.938;2023-08-12T10:32:26;24.70;99.90
26691;DHT22;14307;51.718;8.938;2023-08-12T10:34:57;25.10;99.90
26691;DHT22;14307;51.718;8.938;2023-08-12T10:37:30;25.30;99.90
26691;DHT22;14307;51.718;8.938;2023-08-12T10:39:57;25.40;99.90
26691;DHT22;14307;51.718;8.938;2023-08-12T10:42:43;25.20;99.90
26691;DHT22;14307;51.718;8.938;2023-08-12T10:45:11;24.90;99.90
26691;DHT22;14307;51.718;8.938;2023-08-12T10:47:43;24.70;99.90
26691;DHT22;14307;51.718;8.938;2023-08-12T10:50:17;24.60;99.90
26691;DHT22;14307;51.718;8.938;2023-08-12T10:52:45;24.70;99.90
26691;DHT22;14307;51.718;8.938;2023-08-12T10:55:23;24.80;99.90
26691;DHT22;14307;51.718;8.938;2023-08-12T10:57:52;25.00;99.90
26691;DHT22;14307;51.718;8.938;2023-08-12T11:00:26;25.10;99.90
26691;DHT22;14307;51.718;8.938;2023-08-12T11:02:55;25.00;99.90
26691;DHT22;14307;51.718;8.938;2023-08-12T11:05:24;24.90;99.90
26691;DHT22;14307;51.718;8.938;2023-08-12T11:07:58;24.60;99.90
26691;DHT22;14307;51.718;8.938;2023-08-12T11:10:31;24.60;99.90
26691;DHT22;14307;51.718;8.938;2023-08-12T11:13:01;24.60;99.90
26691;DHT22;14307;51.718;8.938;2023-08-12T11:15:34;24.70;99.90
26691;DHT22;14307;51.718;8.938;2023-08-12T11:18:05;24.70;99.90
26691;DHT22;14307;51.718;8.938;2023-08-12T11:20:37;24.70;99.90
26691;DHT22;14307;51.718;8.938;2023-08-12T11:23:05;24.60;99.90
26691;DHT22;14307;51.718;8.938;2023-08-12T11:25:33;24.40;99.90
26691;DHT22;14307;51.718;8.938;2023-08-12T11:28:00;24.30;99.90
26691;DHT22;14307;51.718;8.938;2023-08-12T11:30:27;24.20;99.90
26691;DHT22;14307;51.718;8.938;2023-08-12T11:32:59;24.10;99.90
26691;DHT22;14307;51.718;8.938;2023-08-12T11:35:27;24.00;99.90
26691;DHT22;14307;51.718;8.938;2023-08-12T11:37:57;24.00;99.90
26691;DHT22;14307;51.718;8.938;2023-08-12T11:40:25;24.10;99.90
26691;DHT22;14307;51.718;8.938;2023-08-12T11:42:53;24.20;99.90
26691;DHT22;14307;51.718;8.938;2023-08-12T11:45:23;24.10;99.90
26691;DHT22;14307;51.718;8.938;2023-08-12T11:47:51;24.10;99.90
26691;DHT22;14307;51.718;8.938;2023-08-12T11:50:24;24.20;99.90
26691;DHT22;14307;51.718;8.938;2023-08-12T11:52:52;24.50;99.90
26691;DHT22;14307;51.718;8.938;2023-08-12T11:55:19;24.70;99.90
26691;DHT22;14307;51.718;8.938;2023-08-12T11:57:46;24.90;99.90
26691;DHT22;14307;51.718;8.938;2023-08-12T12:00:14;24.90;99.90
26691;DHT22;14307;51.718;8.938;2023-08-12T12:05:13;25.10;99.90
26691;DHT22;14307;51.718;8.938;2023-08-12T12:07:40;25.10;99.90
26691;DHT22;14307;51.718;8.938;2023-08-12T12:10:08;25.10;99.90
26691;DHT22;14307;51.718;8.938;2023-08-12T12:12:35;25.10;99.90
26691;DHT22;14307;51.718;8.938;2023-08-12T12:15:03;25.00;99.90
26691;DHT22;14307;51.718;8.938;2023-08-12T12:17:31;24.80;99.90
26691;DHT22;14307;51.718;8.938;2023-08-12T12:20:00;24.70;99.90
26691;DHT22;14307;51.718;8.938;2023-08-12T12:22:43;24.50;99.90
26691;DHT22;14307;51.718;8.938;2023-08-12T12:25:21;24.50;99.90
26691;DHT22;14307;51.718;8.938;2023-08-12T12:27:48;24.40;99.90
26691;DHT22;14307;51.718;8.938;2023-08-12T12:30:16;24.30;99.90
26691;DHT22;14307;51.718;8.938;2023-08-12T12:32:43;24.00;99.90
26691;DHT22;14307;51.718;8.938;2023-08-12T12:35:11;23.80;99.90
26691;DHT22;14307;51.718;8.938;2023-08-12T12:37:38;23.90;99.90
26691;DHT22;14307;51.718;8.938;2023-08-12T12:40:05;23.90;99.90
26691;DHT22;14307;51.718;8.938;2023-08-12T12:42:33;24.00;99.90
26691;DHT22;14307;51.718;8.938;2023-08-12T12:45:00;23.80;99.90
26691;DHT22;14307;51.718;8.938;2023-08-12T12:47:27;23.70;99.90
26691;DHT22;14307;51.718;8.938;2023-08-12T12:49:54;23.60;99.90
26691;DHT22;14307;51.718;8.938;2023-08-12T12:52:21;23.70;99.90
26691;DHT22;14307;51.718;8.938;2023-08-12T12:54:47;23.70;99.90
26691;DHT22;14307;51.718;8.938;2023-08-12T12:57:14;23.60;99.90
26691;DHT22;14307;51.718;8.938;2023-08-12T12:59:41;23.70;99.90
26691;DHT22;14307;51.718;8.938;2023-08-12T13:02:08;23.80;99.90
26691;DHT22;14307;51.718;8.938;2023-08-12T13:04:35;23.80;99.90
26691;DHT22;14307;51.718;8.938;2023-08-12T13:07:05;23.80;99.90
26691;DHT22;14307;51.718;8.938;2023-08-12T13:09:32;23.80;99.90
26691;DHT22;14307;51.718;8.938;2023-08-12T13:11:59;23.80;99.90
26691;DHT22;14307;51.718;8.938;2023-08-12T13:14:26;23.70;99.90
26691;DHT22;14307;51.718;8.938;2023-08-12T13:16:55;23.60;99.90
26691;DHT22;14307;51.718;8.938;2023-08-12T13:19:22;23.60;99.90
26691;DHT22;14307;51.718;8.938;2023-08-12T13:21:48;23.60;99.90
26691;DHT22;14307;51.718;8.938;2023-08-12T13:24:15;23.70;99.90
26691;DHT22;14307;51.718;8.938;2023-08-12T13:26:42;23.90;99.90
26691;DHT22;14307;51.718;8.938;2023-08-12T13:29:09;24.10;99.90
26691;DHT22;14307;51.718;8.938;2023-08-12T13:31:35;24.30;99.90
26691;DHT22;14307;51.718;8.938;2023-08-12T13:34:03;24.50;99.90
26691;DHT22;14307;51.718;8.938;2023-08-12T13:36:30;24.70;99.90
26691;DHT22;14307;51.718;8.938;2023-08-12T13:38:57;24.70;99.90
26691;DHT22;14307;51.718;8.938;2023-08-12T13:41:26;24.70;99.90
26691;DHT22;14307;51.718;8.938;2023-08-12T13:43:53;24.60;99.90
26691;DHT22;14307;51.718;8.938;2023-08-12T13:46:20;24.70;99.90
26691;DHT22;14307;51.718;8.938;2023-08-12T13:48:46;24.70;99.90
26691;DHT22;14307;51.718;8.938;2023-08-12T13:51:13;24.90;99.90
26691;DHT22;14307;51.718;8.938;2023-08-12T13:53:40;25.00;99.90
26691;DHT22;14307;51.718;8.938;2023-08-12T13:56:07;25.10;99.90
26691;DHT22;14307;51.718;8.938;2023-08-12T13:58:33;25.10;99.90
26691;DHT22;14307;51.718;8.938;2023-08-12T14:01:00;24.90;99.90
26691;DHT22;14307;51.718;8.938;2023-08-12T14:03:27;24.80;99.90
26691;DHT22;14307;51.718;8.938;2023-08-12T14:05:54;24.70;99.90
26691;DHT22;14307;51.718;8.938;2023-08-12T14:08:20;24.40;99.90
26691;DHT22;14307;51.718;8.938;2023-08-12T14:10:47;24.10;99.90
26691;DHT22;14307;51.718;8.938;2023-08-12T14:13:14;23.80;99.90
26691;DHT22;14307;51.718;8.938;2023-08-12T14:15:41;23.60;99.90
26691;DHT22;14307;51.718;8.938;2023-08-12T14:18:08;23.20;99.90
26691;DHT22;14307;51.718;8.938;2023-08-12T14:20:35;22.80;99.90
26691;DHT22;14307;51.718;8.938;2023-08-12T14:23:01;22.50;99.90
26691;DHT22;14307;51.718;8.938;2023-08-12T14:25:28;22.20;99.90
26691;DHT22;14307;51.718;8.938;2023-08-12T14:27:55;22.20;99.90
26691;DHT22;14307;51.718;8.938;2023-08-12T14:30:24;22.10;99.90
26691;DHT22;14307;51.718;8.938;2023-08-12T14:32:52;22.00;99.90
26691;DHT22;14307;51.718;8.938;2023-08-12T14:35:19;22.00;99.90
26691;DHT22;14307;51.718;8.938;2023-08-12T14:37:46;22.20;99.90
26691;DHT22;14307;51.718;8.938;2023-08-12T14:40:13;22.60;99.90
26691;DHT22;14307;51.718;8.938;2023-08-12T14:42:39;22.60;99.90
26691;DHT22;14307;51.718;8.938;2023-08-12T14:45:07;22.70;99.90
26691;DHT22;14307;51.718;8.938;2023-08-12T14:47:34;22.60;99.90
26691;DHT22;14307;51.718;8.938;2023-08-12T14:50:01;22.60;99.90
26691;DHT22;14307;51.718;8.938;2023-08-12T14:52:28;22.50;99.90
26691;DHT22;14307;51.718;8.938;2023-08-12T14:54:54;22.30;99.90
26691;DHT22;14307;51.718;8.938;2023-08-12T14:57:22;22.00;99.90
26691;DHT22;14307;51.718;8.938;2023-08-12T14:59:48;21.80;99.90
26691;DHT22;14307;51.718;8.938;2023-08-12T15:02:20;21.50;99.90
26691;DHT22;14307;51.718;8.938;2023-08-12T15:04:48;21.10;99.90
26691;DHT22;14307;51.718;8.938;2023-08-12T15:07:15;20.80;99.90
26691;DHT22;14307;51.718;8.938;2023-08-12T15:09:43;20.60;99.90
26691;DHT22;14307;51.718;8.938;2023-08-12T15:12:09;20.20;99.90
26691;DHT22;14307;51.718;8.938;2023-08-12T15:14:36;19.70;99.90
26691;DHT22;14307;51.718;8.938;2023-08-12T15:17:03;19.50;99.90
26691;DHT22;14307;51.718;8.938;2023-08-12T15:19:29;19.20;99.90
26691;DHT22;14307;51.718;8.938;2023-08-12T15:21:57;19.00;99.90
26691;DHT22;14307;51.718;8.938;2023-08-12T15:24:24;18.90;99.90
26691;DHT22;14307;51.718;8.938;2023-08-12T15:26:51;18.90;99.90
26691;DHT22;14307;51.718;8.938;2023-08-12T15:29:17;18.90;99.90
26691;DHT22;14307;51.718;8.938;2023-08-12T15:31:44;18.90;99.90
26691;DHT22;14307;51.718;8.938;2023-08-12T15:34:11;19.00;99.90
26691;DHT22;14307;51.718;8.938;2023-08-12T15:36:38;19.10;99.90